Time;durP1;ratioP1;P1;durP2;ratioP2;P2;SDS_P1;SDS_P2;PMS_P1;PMS_P2;Temp;Humidity;BMP_temperature;BMP_pressure;BME280_temperature;BME280_humidity;BME280_pressure;Samples;Min_cycle;Max_cycle;Signal;HPM_P1;HPM_P2
2022/10/26 00:02:16;;;;;;;25.10;14.37;;;;;;;;;;5112886;28;20423;-76
2022/10/26 00:04:42;;;;;;;25.17;14.73;;;;;;;;;;5097652;28;20875;-77
2022/10/26 00:07:08;;;;;;;23.77;14.73;;;;;;;;;;5090964;28;20412;-76
2022/10/26 00:09:34;;;;;;;27.87;14.90;;;;;;;;;;5111118;28;20492;-77
2022/10/26 00:12:00;;;;;;;25.95;14.98;;;;;;;;;;5095351;28;20420;-78
2022/10/26 00:14:29;;;;;;;27.02;15.45;;;;;;;;;;5096209;28;20422;-76
2022/10/26 00:16:55;;;;;;;27.08;15.35;;;;;;;;;;5095479;28;20416;-77
2022/10/26 00:19:21;;;;;;;23.98;14.93;;;;;;;;;;5110986;28;20511;-77
2022/10/26 00:21:48;;;;;;;27.30;14.55;;;;;;;;;;5095006;28;20900;-77
2022/10/26 00:24:14;;;;;;;25.73;15.07;;;;;;;;;;5113736;28;20442;-77
2022/10/26 00:26:40;;;;;;;26.77;15.23;;;;;;;;;;5109932;28;20416;-77
2022/10/26 00:29:07;;;;;;;23.70;14.93;;;;;;;;;;5075871;28;20463;-77
2022/10/26 00:31:33;;;;;;;28.70;16.00;;;;;;;;;;5088201;28;20427;-77
2022/10/26 00:33:59;;;;;;;28.13;15.83;;;;;;;;;;5096391;28;20440;-75
2022/10/26 00:36:26;;;;;;;25.70;16.42;;;;;;;;;;5095251;28;20416;-76
2022/10/26 00:38:55;;;;;;;29.67;16.10;;;10.60;99.90;;;;;;5110550;28;20435;-76
2022/10/26 00:41:26;;;;;;;25.05;15.65;;;;;;;;;;5095983;28;20460;-76
2022/10/26 00:43:52;;;;;;;30.15;16.67;;;10.60;99.90;;;;;;5112188;28;20426;-76
2022/10/26 00:46:33;;;;;;;27.98;16.52;;;;;;;;;;5085628;28;20500;-76
2022/10/26 00:49:02;;;;;;;27.52;16.75;;;;;;;;;;5093841;28;20430;-76
2022/10/26 00:51:34;;;;;;;28.45;16.38;;;;;;;;;;5113373;28;20411;-77
2022/10/26 00:54:01;;;;;;;29.25;16.85;;;;;;;;;;5112805;28;20416;-77
2022/10/26 00:56:28;;;;;;;30.45;16.48;;;;;;;;;;5112364;28;20420;-76
2022/10/26 00:58:55;;;;;;;30.42;16.48;;;;;;;;;;5093696;28;20412;-77
2022/10/26 01:01:21;;;;;;;27.55;16.77;;;;;;;;;;5096561;28;20487;-77
2022/10/26 01:03:47;;;;;;;26.02;16.35;;;;;;;;;;5110860;28;20444;-78
2022/10/26 01:06:14;;;;;;;26.98;16.52;;;10.40;99.90;;;;;;5092483;28;20488;-77
2022/10/26 01:08:42;;;;;;;26.88;16.42;;;;;;;;;;5109548;28;20424;-77
2022/10/26 01:11:08;;;;;;;23.65;16.52;;;;;;;;;;5094204;28;20424;-76
2022/10/26 01:13:35;;;;;;;28.52;16.60;;;;;;;;;;5111188;28;20428;-76
2022/10/26 01:16:07;;;;;;;23.08;16.05;;;;;;;;;;5109889;28;20453;-76
2022/10/26 01:18:36;;;;;;;27.63;16.73;;;;;;;;;;5094101;28;20431;-77
2022/10/26 01:21:39;;;;;;;29.50;17.13;;;10.30;99.90;;;;;;5111644;28;20504;-77
2022/10/26 01:24:08;;;;;;;25.65;16.92;;;;;;;;;;5112365;28;20924;-77
2022/10/26 01:26:47;;;;;;;28.42;17.73;;;;;;;;;;5090711;28;20444;-76
2022/10/26 01:29:28;;;;;;;31.92;18.92;;;10.30;99.90;;;;;;5110525;28;20424;-77
2022/10/26 01:32:05;;;;;;;27.23;18.70;;;;;;;;;;5111901;28;20475;-76
2022/10/26 01:34:43;;;;;;;32.60;19.60;;;10.20;99.90;;;;;;5110223;28;20473;-76
2022/10/26 01:37:12;;;;;;;33.97;20.58;;;;;;;;;;5111177;28;20452;-77
2022/10/26 01:39:45;;;;;;;35.60;21.73;;;;;;;;;;5110899;28;20952;-76
2022/10/26 01:42:13;;;;;;;38.22;22.48;;;;;;;;;;5111297;28;20477;-76
2022/10/26 01:44:51;;;;;;;36.05;22.75;;;10.20;99.90;;;;;;5091627;28;20738;-75
2022/10/26 01:47:18;;;;;;;40.13;24.05;;;;;;;;;;5092040;28;20394;-77
2022/10/26 01:49:49;;;;;;;37.72;24.65;;;;;;;;;;5093193;28;20417;-77
2022/10/26 01:52:15;;;;;;;38.47;25.52;;;;;;;;;;5111326;28;20940;-77
2022/10/26 01:54:41;;;;;;;40.47;25.83;;;;;;;;;;5110994;28;20420;-77
2022/10/26 01:57:08;;;;;;;38.92;25.17;;;;;;;;;;5108878;28;20511;-77
2022/10/26 01:59:43;;;;;;;36.40;23.33;;;;;;;;;;5109613;28;20509;-77
2022/10/26 02:02:09;;;;;;;34.13;23.45;;;;;;;;;;5110373;28;20428;-77
2022/10/26 02:04:47;;;;;;;33.38;22.75;;;;;;;;;;5094153;28;20401;-77
2022/10/26 02:07:14;;;;;;;30.73;21.40;;;;;;;;;;5110975;28;20413;-77
2022/10/26 02:09:59;;;;;;;31.38;21.30;;;;;;;;;;5091919;28;20424;-77
2022/10/26 02:12:40;;;;;;;30.23;20.20;;;;;;;;;;5110916;28;20499;-77
2022/10/26 02:15:09;;;;;;;35.75;21.35;;;;;;;;;;5078840;28;20412;-77
2022/10/26 02:17:50;;;;;;;31.85;19.75;;;10.10;99.90;;;;;;5109097;28;20402;-77
2022/10/26 02:20:22;;;;;;;29.80;19.73;;;10.20;99.90;;;;;;5108743;28;20843;-75
2022/10/26 02:22:50;;;;;;;33.67;20.07;;;;;;;;;;5110471;28;20420;-77
2022/10/26 02:25:36;;;;;;;31.37;19.03;;;;;;;;;;5108893;28;20949;-76
2022/10/26 02:28:16;;;;;;;34.17;19.10;;;10.10;99.90;;;;;;5127162;27;20431;-76
2022/10/26 02:30:43;;;;;;;33.17;19.40;;;;;;;;;;5094414;28;20410;-76
2022/10/26 02:33:12;;;;;;;34.08;19.30;;;10.00;99.90;;;;;;5109588;28;20431;-76
2022/10/26 02:35:41;;;;;;;29.60;18.77;;;10.00;99.90;;;;;;5093613;28;20459;-76
2022/10/26 02:38:09;;;;;;;29.50;18.42;;;;;;;;;;5108195;28;20916;-76
2022/10/26 02:40:36;;;;;;;29.90;18.55;;;10.10;99.90;;;;;;5110795;28;20424;-76
2022/10/26 02:43:07;;;;;;;25.90;17.17;;;;;;;;;;5111021;27;20427;-77
2022/10/26 02:45:38;;;;;;;29.02;17.95;;;;;;;;;;5097334;27;20462;-77
2022/10/26 02:48:05;;;;;;;26.65;17.73;;;;;;;;;;5113677;27;20414;-77
2022/10/26 02:51:01;;;;;;;26.50;17.20;;;;;;;;;;5095912;27;20430;-77
2022/10/26 02:53:36;;;;;;;24.00;16.87;;;;;;;;;;5092512;27;20406;-77
2022/10/26 02:56:17;;;;;;;29.15;18.27;;;10.00;99.90;;;;;;5096015;27;20422;-76
2022/10/26 02:58:46;;;;;;;25.13;16.77;;;10.00;99.90;;;;;;5111184;27;20509;-77
2022/10/26 03:01:13;;;;;;;22.65;17.10;;;;;;;;;;5097141;27;20422;-77
2022/10/26 03:03:39;;;;;;;25.00;16.42;;;;;;;;;;5101515;27;20451;-77
2022/10/26 03:06:05;;;;;;;24.10;16.65;;;;;;;;;;5106750;27;20421;-77
2022/10/26 03:08:31;;;;;;;24.90;16.00;;;;;;;;;;5080579;27;20500;-77
2022/10/26 03:10:57;;;;;;;23.05;15.80;;;;;;;;;;5112756;27;20418;-77
2022/10/26 03:13:23;;;;;;;22.48;15.10;;;;;;;;;;5113845;28;20755;-77
2022/10/26 03:15:49;;;;;;;21.75;15.02;;;;;;;;;;5095305;27;20414;-77
2022/10/26 03:18:15;;;;;;;23.60;14.93;;;10.00;99.90;;;;;;5095931;27;20450;-77
2022/10/26 03:20:44;;;;;;;24.08;15.02;;;10.10;99.90;;;;;;5094583;27;20473;-77
2022/10/26 03:23:11;;;;;;;22.00;15.02;;;;;;;;;;5096195;27;20437;-77
2022/10/26 03:25:37;;;;;;;24.30;15.20;;;;;;;;;;5095458;28;20439;-77
2022/10/26 03:28:04;;;;;;;21.63;15.30;;;;;;;;;;5113054;28;20414;-77
2022/10/26 03:30:32;;;;;;;23.45;15.52;;;10.20;99.90;;;;;;5112924;28;20425;-77
2022/10/26 03:32:58;;;;;;;23.25;14.57;;;;;;;;;;5095333;28;20529;-77
2022/10/26 03:35:24;;;;;;;28.67;15.40;;;;;;;;;;5112054;28;20422;-77
2022/10/26 03:37:50;;;;;;;24.88;16.40;;;;;;;;;;5095644;28;20409;-76
2022/10/26 03:40:16;;;;;;;23.25;15.40;;;;;;;;;;5112287;28;20434;-76
2022/10/26 03:42:42;;;;;;;22.25;15.43;;;;;;;;;;5111697;28;20422;-76
2022/10/26 03:45:09;;;;;;;24.70;16.30;;;;;;;;;;5094594;27;20430;-76
2022/10/26 03:47:42;;;;;;;25.27;15.98;;;10.10;99.90;;;;;;5113150;28;20398;-76
2022/10/26 03:50:08;;;;;;;26.90;16.80;;;;;;;;;;5094885;28;20410;-76
2022/10/26 03:52:34;;;;;;;25.35;16.90;;;;;;;;;;5112070;28;20422;-76
2022/10/26 03:55:00;;;;;;;27.88;17.45;;;;;;;;;;5111608;28;20418;-76
2022/10/26 03:57:26;;;;;;;24.55;17.23;;;;;;;;;;5096271;28;20422;-76
2022/10/26 03:59:52;;;;;;;25.33;17.80;;;;;;;;;;5112089;28;20442;-77
2022/10/26 04:02:18;;;;;;;28.65;18.95;;;;;;;;;;5112182;28;20778;-77
2022/10/26 04:04:44;;;;;;;29.40;19.60;;;;;;;;;;5113340;28;20858;-77
2022/10/26 04:07:10;;;;;;;32.10;19.60;;;;;;;;;;5094855;28;20418;-76
2022/10/26 04:09:36;;;;;;;31.27;19.25;;;;;;;;;;5110851;28;20417;-76
2022/10/26 04:12:02;;;;;;;28.98;19.25;;;;;;;;;;5095325;28;20562;-76
2022/10/26 04:14:28;;;;;;;30.05;20.08;;;;;;;;;;5094531;28;20410;-76
2022/10/26 04:16:55;;;;;;;28.13;19.25;;;;;;;;;;5112628;28;20410;-77
2022/10/26 04:19:21;;;;;;;29.40;20.20;;;;;;;;;;5093956;27;20421;-76
2022/10/26 04:21:47;;;;;;;31.65;20.63;;;;;;;;;;5112750;27;20507;-76
2022/10/26 04:24:13;;;;;;;34.50;21.02;;;;;;;;;;5092452;27;20410;-77
2022/10/26 04:26:39;;;;;;;35.05;21.38;;;;;;;;;;5111295;27;20446;-76
2022/10/26 04:29:05;;;;;;;32.40;20.70;;;;;;;;;;5077669;28;20422;-77
2022/10/26 04:31:32;;;;;;;31.58;20.48;;;;;;;;;;5110761;27;20414;-76
2022/10/26 04:33:58;;;;;;;31.83;21.08;;;;;;;;;;5114661;27;20418;-76
2022/10/26 04:36:24;;;;;;;31.27;21.55;;;;;;;;;;5116117;27;20514;-76
2022/10/26 04:38:50;;;;;;;32.38;22.52;;;;;;;;;;5114881;27;20790;-76
2022/10/26 04:41:16;;;;;;;36.63;23.73;;;;;;;;;;5100384;27;20446;-76
2022/10/26 04:43:42;;;;;;;36.17;22.77;;;;;;;;;;5113697;27;21948;-77
2022/10/26 04:46:08;;;;;;;37.23;24.60;;;;;;;;;;5107445;27;20446;-77
2022/10/26 04:48:34;;;;;;;32.65;22.02;;;;;;;;;;5096977;27;20440;-77
2022/10/26 04:51:00;;;;;;;39.38;23.95;;;;;;;;;;5098865;27;20407;-77
2022/10/26 04:53:27;;;;;;;33.05;22.33;;;;;;;;;;5114101;27;20414;-77
2022/10/26 04:55:56;;;;;;;33.97;22.10;;;;;;;;;;5114137;27;20786;-77
2022/10/26 04:58:23;;;;;;;32.75;21.35;;;;;;;;;;5114808;27;20425;-77
2022/10/26 05:00:49;;;;;;;35.63;23.80;;;;;;;;;;5097704;27;20438;-77
2022/10/26 05:03:15;;;;;;;35.95;23.38;;;;;;;;;;5111973;27;20423;-77
2022/10/26 05:05:41;;;;;;;43.03;25.77;;;;;;;;;;5098664;27;20455;-77
2022/10/26 05:08:07;;;;;;;34.80;22.23;;;;;;;;;;5115239;27;20482;-78
2022/10/26 05:10:33;;;;;;;34.22;22.42;;;;;;;;;;5114066;27;20412;-77
2022/10/26 05:13:00;;;;;;;66.25;25.65;;;;;;;;;;5079489;27;20426;-77
2022/10/26 05:15:27;;;;;;;32.30;22.58;;;;;;;;;;5097685;27;20422;-77
2022/10/26 05:17:57;;;;;;;43.60;25.85;;;;;;;;;;5115075;27;20457;-76
2022/10/26 05:20:30;;;;;;;49.55;26.92;;;;;;;;;;5079306;27;20400;-77
2022/10/26 05:23:01;;;;;;;31.70;22.88;;;10.40;99.90;;;;;;5110043;27;20422;-77
2022/10/26 05:25:28;;;;;;;55.88;23.67;;;;;;;;;;5095792;27;20414;-76
2022/10/26 05:27:59;;;;;;;55.72;23.88;;;10.50;99.90;;;;;;5116192;27;20901;-76
2022/10/26 05:30:26;;;;;;;27.58;19.30;;;;;;;;;;5095924;28;20414;-76
2022/10/26 05:32:59;;;;;;;29.48;19.75;;;;;;;;;;5112422;27;20429;-77
2022/10/26 05:35:25;;;;;;;31.23;21.20;;;;;;;;;;5115371;27;20470;-77
2022/10/26 05:37:52;;;;;;;31.70;18.40;;;;;;;;;;5114470;27;20461;-77
2022/10/26 05:40:18;;;;;;;29.52;18.35;;;;;;;;;;5102631;27;20418;-77
2022/10/26 05:42:44;;;;;;;26.13;17.38;;;10.50;99.90;;;;;;5113156;27;20422;-77
2022/10/26 05:45:11;;;;;;;25.90;17.13;;;;;;;;;;5096002;27;20422;-76
2022/10/26 05:47:41;;;;;;;26.35;17.88;;;;;;;;;;5110692;27;20511;-77
2022/10/26 05:50:08;;;;;;;24.98;18.05;;;10.40;99.90;;;;;;5082652;27;20432;-76
2022/10/26 05:52:40;;;;;;;28.33;17.90;;;;;;;;;;5111843;27;20422;-77
2022/10/26 05:55:11;;;;;;;28.08;18.00;;;10.70;99.90;;;;;;5112340;27;20425;-76
2022/10/26 05:57:38;;;;;;;27.05;18.33;;;;;;;;;;5092194;28;20416;-75
2022/10/26 06:00:09;;;;;;;23.25;16.70;;;10.60;99.90;;;;;;5102349;27;20449;-76
2022/10/26 06:02:54;;;;;;;25.38;16.48;;;;;;;;;;5087676;27;20422;-77
2022/10/26 06:05:25;;;;;;;22.27;15.60;;;10.50;99.90;;;;;;5113511;27;20895;-76
2022/10/26 06:07:51;;;;;;;24.15;15.43;;;;;;;;;;5112820;27;20421;-76
2022/10/26 06:10:17;;;;;;;20.10;14.55;;;;;;;;;;5115413;27;20411;-76
2022/10/26 06:12:44;;;;;;;20.40;14.88;;;;;;;;;;5111743;27;20438;-77
2022/10/26 06:15:20;;;;;;;20.63;14.38;;;10.90;99.90;;;;;;5097452;27;20421;-77
2022/10/26 06:17:47;;;;;;;20.80;13.85;;;;;;;;;;5092496;27;20937;-77
2022/10/26 06:20:17;;;;;;;20.20;13.80;;;;;;;;;;5094448;27;20418;-76
2022/10/26 06:23:02;;;;;;;24.10;13.77;;;;;;;;;;5111671;27;20419;-77
2022/10/26 06:25:35;;;;;;;22.20;13.80;;;;;;;;;;5114256;27;20481;-77
2022/10/26 06:28:04;;;;;;;24.25;13.55;;;;;;;;;;5113976;27;20559;-76
2022/10/26 06:30:30;;;;;;;20.15;14.23;;;;;;;;;;5098279;27;20493;-78
2022/10/26 06:32:58;;;;;;;26.80;13.75;;;;;;;;;;5096099;27;20422;-78
2022/10/26 06:35:24;;;;;;;20.38;12.60;;;;;;;;;;5112904;27;20402;-77
2022/10/26 06:37:51;;;;;;;19.33;12.65;;;11.40;99.90;;;;;;5113366;27;20946;-77
2022/10/26 06:40:18;;;;;;;19.27;13.15;;;;;;;;;;5110128;27;20438;-77
2022/10/26 06:42:44;;;;;;;21.67;13.48;;;;;;;;;;5088456;27;20415;-77
2022/10/26 06:45:14;;;;;;;20.52;13.02;;;11.10;99.90;;;;;;5106442;28;20420;-77
2022/10/26 06:48:02;;;;;;;18.23;12.88;;;11.00;99.90;;;;;;5107057;28;20764;-77
2022/10/26 06:50:36;;;;;;;18.17;13.77;;;;;;;;;;5108059;28;20416;-77
2022/10/26 06:53:17;;;;;;;18.17;12.95;;;11.00;99.90;;;;;;5104056;28;20427;-76
2022/10/26 06:55:44;;;;;;;19.63;13.55;;;;;;;;;;5108774;28;20429;-77
2022/10/26 06:58:16;;;;;;;20.25;13.13;;;11.30;99.90;;;;;;5103871;28;20474;-77
2022/10/26 07:00:44;;;;;;;22.20;13.38;;;11.20;99.90;;;;;;5104210;28;20416;-77
2022/10/26 07:03:10;;;;;;;22.02;13.40;;;;;;;;;;5105706;28;20424;-77
2022/10/26 07:05:36;;;;;;;24.42;13.18;;;;;;;;;;5091917;28;20764;-77
2022/10/26 07:08:02;;;;;;;21.80;13.15;;;;;;;;;;5090744;28;20416;-77
2022/10/26 07:10:28;;;;;;;19.90;12.95;;;;;;;;;;5089234;28;20460;-78
2022/10/26 07:12:54;;;;;;;21.58;12.40;;;;;;;;;;5107346;28;20424;-78
2022/10/26 07:15:20;;;;;;;20.40;12.53;;;;;;;;;;5071878;28;20432;-77
2022/10/26 07:17:47;;;;;;;19.75;12.90;;;;;;;;;;5106909;28;20427;-77
2022/10/26 07:20:18;;;;;;;19.60;13.40;;;;;;;;;;5107036;28;20477;-78
2022/10/26 07:22:43;;;;;;;18.65;12.13;;;11.40;99.90;;;;;;5107283;28;20421;-77
2022/10/26 07:25:11;;;;;;;20.33;13.23;;;;;;;;;;5109264;28;20477;-78
2022/10/26 07:27:37;;;;;;;23.85;12.82;;;;;;;;;;5105475;28;20417;-78
2022/10/26 07:30:03;;;;;;;20.33;12.65;;;;;;;;;;5107688;28;20420;-78
2022/10/26 07:32:29;;;;;;;23.70;12.90;;;;;;;;;;5107474;28;20416;-77
2022/10/26 07:34:56;;;;;;;18.50;11.75;;;;;;;;;;5108755;28;20412;-77
2022/10/26 07:37:22;;;;;;;20.65;12.15;;;;;;;;;;5090471;28;20950;-77
2022/10/26 07:39:48;;;;;;;18.27;11.87;;;;;;;;;;5113945;28;20500;-77
2022/10/26 07:42:14;;;;;;;16.65;11.15;;;11.60;99.90;;;;;;5112877;28;20495;-77
2022/10/26 07:44:40;;;;;;;14.10;10.60;;;;;;;;;;5090419;28;20776;-76
2022/10/26 07:47:06;;;;;;;18.60;12.45;;;;;;;;;;5102958;28;20427;-77
2022/10/26 07:49:33;;;;;;;23.15;11.20;;;;;;;;;;5108010;28;20464;-79
2022/10/26 07:51:59;;;;;;;16.85;10.98;;;;;;;;;;5089651;28;20525;-78
2022/10/26 07:54:25;;;;;;;15.75;10.50;;;;;;;;;;5091270;28;20432;-78
2022/10/26 07:56:51;;;;;;;16.25;10.07;;;;;;;;;;5112915;28;20420;-79
2022/10/26 07:59:17;;;;;;;17.17;9.73;;;;;;;;;;5082319;28;20439;-78
2022/10/26 08:01:43;;;;;;;16.70;10.27;;;;;;;;;;5087518;28;20414;-78
2022/10/26 08:04:09;;;;;;;17.70;11.07;;;;;;;;;;5112321;28;20431;-79
2022/10/26 08:06:36;;;;;;;16.63;9.45;;;;;;;;;;5114828;28;20408;-79
2022/10/26 08:09:02;;;;;;;14.70;9.30;;;;;;;;;;5096834;28;20504;-78
2022/10/26 08:11:28;;;;;;;14.85;8.80;;;;;;;;;;5110217;28;20447;-79
2022/10/26 08:13:54;;;;;;;16.27;8.65;;;;;;;;;;5095735;28;20421;-78
2022/10/26 08:16:21;;;;;;;12.63;8.73;;;;;;;;;;5109973;28;20956;-79
2022/10/26 08:18:48;;;;;;;16.35;8.40;;;12.80;99.90;;;;;;5094165;28;20428;-78
2022/10/26 08:21:14;;;;;;;13.77;8.73;;;13.20;99.90;;;;;;5109658;28;20423;-78
2022/10/26 08:23:40;;;;;;;14.03;8.40;;;;;;;;;;5090406;28;20469;-79
2022/10/26 08:26:06;;;;;;;12.85;8.23;;;13.30;99.90;;;;;;5087118;28;20902;-76
2022/10/26 08:28:33;;;;;;;13.82;8.57;;;;;;;;;;5108784;28;20990;-77
2022/10/26 08:30:59;;;;;;;15.82;8.05;;;;;;;;;;5114004;28;20403;-77
2022/10/26 08:33:25;;;;;;;12.77;7.78;;;;;;;;;;5109800;28;20479;-77
2022/10/26 08:35:56;;;;;;;12.90;7.63;;;13.40;99.90;;;;;;5112260;28;20412;-77
2022/10/26 08:38:22;;;;;;;12.43;7.78;;;;;;;;;;5104918;28;20451;-75
2022/10/26 08:40:48;;;;;;;13.77;7.40;;;;;;;;;;5113958;28;20457;-75
2022/10/26 08:43:38;;;;;;;11.82;7.00;;;13.90;99.90;;;;;;5111155;27;20414;-76
2022/10/26 08:46:10;;;;;;;13.40;7.47;;;13.90;99.90;;;;;;5114804;27;20422;-76
2022/10/26 08:48:42;;;;;;;10.63;7.13;;;;;;;;;;5114610;27;20922;-76
2022/10/26 08:51:17;;;;;;;11.73;7.47;;;13.90;99.90;;;;;;5094030;27;20406;-76
2022/10/26 08:54:13;;;;;;;13.20;6.90;;;13.80;99.90;;;;;;5095870;27;20451;-76
2022/10/26 08:56:57;;;;;;;13.70;6.97;;;;;;;;;;5103587;27;20455;-76
2022/10/26 08:59:29;;;;;;;11.95;6.60;;;;;;;;;;5113265;27;20415;-76
2022/10/26 09:01:55;;;;;;;11.48;6.50;;;;;;;;;;5111121;27;20937;-76
2022/10/26 09:04:28;;;;;;;8.90;6.33;;;;;;;;;;5110947;27;20419;-76
2022/10/26 09:07:03;;;;;;;11.18;6.40;;;;;;;;;;5113449;27;20411;-77
2022/10/26 09:09:41;;;;;;;10.27;6.15;;;;;;;;;;5112311;27;20417;-77
2022/10/26 09:12:07;;;;;;;11.88;6.05;;;;;;;;;;5110540;27;20406;-77
2022/10/26 09:14:53;;;;;;;14.50;6.07;;;14.70;99.90;;;;;;5111294;27;20413;-77
2022/10/26 09:17:37;;;;;;;10.00;6.00;;;;;;;;;;5093194;27;20417;-76
2022/10/26 09:20:25;;;;;;;9.53;5.93;;;;;;;;;;5110071;27;20515;-76
2022/10/26 09:23:04;;;;;;;10.60;6.38;;;;;;;;;;5132250;27;20423;-76
2022/10/26 09:25:38;;;;;;;11.23;5.97;;;14.80;99.90;;;;;;5116021;27;20403;-77
2022/10/26 09:28:07;;;;;;;10.68;6.18;;;;;;;;;;5120863;27;20403;-77
2022/10/26 09:30:34;;;;;;;12.50;6.68;;;;;;;;;;5119750;27;20406;-77
2022/10/26 09:33:03;;;;;;;11.85;6.35;;;;;;;;;;5081454;27;20449;-77
2022/10/26 09:36:00;;;;;;;11.35;6.03;;;14.90;99.90;;;;;;5113688;27;20413;-77
2022/10/26 09:38:29;;;;;;;10.18;5.88;;;;;;;;;;5116278;27;20421;-77
2022/10/26 09:40:55;;;;;;;9.07;6.47;;;;;;;;;;5118537;27;20421;-77
2022/10/26 09:43:26;;;;;;;10.07;5.80;;;;;;;;;;5114245;27;20415;-77
2022/10/26 09:45:52;;;;;;;10.63;6.35;;;;;;;;;;5107494;27;20492;-76
2022/10/26 09:48:35;;;;;;;11.30;5.90;;;15.50;99.90;;;;;;5112039;27;20509;-77
2022/10/26 09:51:01;;;;;;;12.65;6.03;;;15.50;99.90;;;;;;5111649;27;20902;-77
2022/10/26 09:53:27;;;;;;;13.38;6.20;;;;;;;;;;5113079;27;20898;-77
2022/10/26 09:56:19;;;;;;;9.82;5.65;;;15.60;99.90;;;;;;5093757;27;20415;-76
2022/10/26 09:58:45;;;;;;;8.60;5.20;;;15.50;99.90;;;;;;5099383;27;20422;-76
2022/10/26 10:01:31;;;;;;;10.80;5.28;;;;;;;;;;5096691;27;20410;-76
2022/10/26 10:04:26;;;;;;;10.75;5.28;;;;;;;;;;5114260;27;20418;-77
2022/10/26 10:07:14;;;;;;;9.60;5.10;;;16.00;99.90;;;;;;5093729;27;20454;-75
2022/10/26 10:09:40;;;;;;;10.93;5.10;;;16.40;99.90;;;;;;5096722;27;20414;-76
2022/10/26 10:12:17;;;;;;;9.97;4.70;;;16.10;99.90;;;;;;5115671;27;20399;-77
2022/10/26 10:14:55;;;;;;;9.38;4.25;;;16.70;99.90;;;;;;5112865;27;20418;-76
2022/10/26 10:17:22;;;;;;;7.07;3.42;;;16.40;99.90;;;;;;5096524;27;20902;-76
2022/10/26 10:19:50;;;;;;;6.27;3.53;;;16.60;99.90;;;;;;5111224;27;20426;-76
2022/10/26 10:22:18;;;;;;;9.77;3.30;;;16.50;99.90;;;;;;5132780;27;20418;-76
2022/10/26 10:24:53;;;;;;;7.90;3.50;;;17.00;99.90;;;;;;5112820;27;20422;-76
2022/10/26 10:27:19;;;;;;;10.35;3.45;;;16.70;99.90;;;;;;5114217;27;20956;-76
2022/10/26 10:29:51;;;;;;;9.18;3.75;;;17.10;99.90;;;;;;5111421;27;20410;-76
2022/10/26 10:32:31;;;;;;;5.20;3.22;;;16.80;99.90;;;;;;5098110;27;20475;-76
2022/10/26 10:34:58;;;;;;;8.35;3.58;;;;;;;;;;5094137;27;20406;-76
2022/10/26 10:37:27;;;;;;;7.28;3.40;;;;;;;;;;5106442;28;21039;-75
2022/10/26 10:40:01;;;;;;;11.37;3.70;;;;;;;;;;5107019;27;20424;-75
2022/10/26 10:42:30;;;;;;;7.63;3.58;;;16.80;99.90;;;;;;5114899;27;20826;-75
2022/10/26 10:44:57;;;;;;;6.83;3.20;;;16.90;99.90;;;;;;5109683;27;20435;-75
2022/10/26 10:47:33;;;;;;;6.75;3.25;;;17.00;99.90;;;;;;5075846;28;20422;-75
2022/10/26 10:50:00;;;;;;;7.32;3.38;;;17.00;99.90;;;;;;5109398;27;20422;-75
2022/10/26 10:52:31;;;;;;;7.47;3.20;;;17.20;99.90;;;;;;5077321;28;20392;-76
2022/10/26 10:55:13;;;;;;;8.93;3.45;;;17.10;99.90;;;;;;5091053;27;20513;-76
2022/10/26 10:57:58;;;;;;;8.55;3.28;;;17.50;99.90;;;;;;5099862;27;20415;-76
2022/10/26 11:00:24;;;;;;;8.10;3.30;;;17.50;99.90;;;;;;5096931;27;20418;-76
2022/10/26 11:03:19;;;;;;;5.88;3.13;;;17.50;99.90;;;;;;5097300;27;20838;-75
2022/10/26 11:06:01;;;;;;;6.22;3.20;;;17.60;99.90;;;;;;5113803;27;20422;-75
2022/10/26 11:08:39;;;;;;;7.27;3.10;;;18.10;99.90;;;;;;5113443;27;20510;-75
2022/10/26 11:11:13;;;;;;;6.17;3.00;;;;;;;;;;5094485;27;20559;-75
2022/10/26 11:13:44;;;;;;;7.82;3.08;;;;;;;;;;5111884;27;20417;-77
2022/10/26 11:16:13;;;;;;;8.90;3.15;;;;;;;;;;5111580;27;20433;-76
2022/10/26 11:19:13;;;;;;;5.63;3.05;;;17.90;99.90;;;;;;5112095;27;20978;-78
2022/10/26 11:21:39;;;;;;;7.18;2.85;;;18.30;99.90;;;;;;5064828;27;21017;-75
2022/10/26 11:24:09;;;;;;;7.00;3.08;;;;;;;;;;5094825;27;20498;-76
2022/10/26 11:26:52;;;;;;;8.30;3.10;;;18.30;99.90;;;;;;5112662;27;20425;-75
2022/10/26 11:29:44;;;;;;;9.45;3.28;;;18.20;99.90;;;;;;5108246;27;20430;-75
2022/10/26 11:32:15;;;;;;;6.25;2.95;;;18.50;99.90;;;;;;5062671;27;20415;-76
2022/10/26 11:34:49;;;;;;;7.20;2.75;;;18.50;99.90;;;;;;5087476;28;20415;-76
2022/10/26 11:37:31;;;;;;;6.60;2.75;;;;;;;;;;5109015;28;20425;-77
2022/10/26 11:40:25;;;;;;;8.57;3.00;;;19.10;99.90;;;;;;5088558;28;20468;-76
2022/10/26 11:43:01;;;;;;;6.38;2.90;;;19.30;99.90;;;;;;5109597;28;20415;-77
2022/10/26 11:45:43;;;;;;;8.00;2.60;;;19.00;99.90;;;;;;5107662;28;20425;-78
2022/10/26 11:48:20;;;;;;;7.25;3.03;;;19.40;99.90;;;;;;5093856;28;20454;-77
2022/10/26 11:50:52;;;;;;;7.55;2.85;;;19.10;99.90;;;;;;5109756;28;20808;-79
2022/10/26 11:53:23;;;;;;;6.60;3.17;;;19.60;99.90;;;;;;5092194;28;20414;-79
2022/10/26 11:55:53;;;;;;;8.07;3.10;;;19.20;99.90;;;;;;5109038;28;20724;-79
2022/10/26 11:58:23;;;;;;;5.72;2.80;;;19.10;99.90;;;;;;5109233;28;20477;-79
2022/10/26 12:01:02;;;;;;;9.55;3.33;;;19.20;99.90;;;;;;5088178;28;20951;-79
2022/10/26 12:03:34;;;;;;;8.52;3.30;;;19.10;99.90;;;;;;5089352;28;20457;-79
2022/10/26 12:06:00;;;;;;;7.53;3.30;;;19.10;99.90;;;;;;5121331;27;20776;-77
2022/10/26 12:08:49;;;;;;;6.83;3.30;;;19.20;99.90;;;;;;5109988;28;20421;-79
2022/10/26 12:11:35;;;;;;;8.00;3.40;;;19.30;99.90;;;;;;5093258;28;20420;-78
2022/10/26 12:14:38;;;;;;;7.57;3.40;;;17.60;99.90;;;;;;5082735;28;20422;-78
2022/10/26 12:17:31;;;;;;;6.63;3.60;;;19.10;99.90;;;;;;5076517;27;20434;-79
2022/10/26 12:20:34;;;;;;;6.60;3.05;;;19.50;99.90;;;;;;5114331;27;20444;-80
2022/10/26 12:23:02;;;;;;;7.80;3.40;;;19.80;99.90;;;;;;5092287;28;20553;-78
2022/10/26 12:25:27;;;;;;;8.88;3.45;;;19.70;99.90;;;;;;5108496;27;20733;-79
2022/10/26 12:27:55;;;;;;;9.32;3.40;;;22.00;99.90;;;;;;5095520;27;20938;-79
2022/10/26 12:30:20;;;;;;;6.28;3.25;;;19.60;99.90;;;;;;5107360;28;20422;-78
2022/10/26 12:32:49;;;;;;;9.85;3.70;;;19.70;99.90;;;;;;5094137;28;20418;-78
2022/10/26 12:35:43;;;;;;;9.98;3.70;;;19.30;99.90;;;;;;5108485;28;20510;-78
2022/10/26 12:38:23;;;;;;;7.90;3.63;;;19.50;99.90;;;;;;5116263;28;20568;-78
2022/10/26 12:41:08;;;;;;;8.27;3.22;;;19.40;99.90;;;;;;5108030;27;20422;-79
2022/10/26 12:43:39;;;;;;;8.35;3.40;;;19.40;99.90;;;;;;5108183;27;20843;-79
2022/10/26 12:46:11;;;;;;;7.72;3.63;;;19.10;99.90;;;;;;5064528;28;20479;-79
2022/10/26 12:48:50;;;;;;;8.67;4.30;;;19.20;99.90;;;;;;5072726;28;20446;-79
2022/10/26 12:51:21;;;;;;;10.03;4.53;;;19.20;99.90;;;;;;5085424;28;20454;-79
2022/10/26 12:54:06;;;;;;;9.18;4.72;;;19.10;99.90;;;;;;5072141;28;20955;-80
2022/10/26 12:56:45;;;;;;;9.30;4.50;;;19.00;99.90;;;;;;5087147;28;20412;-80
2022/10/26 12:59:24;;;;;;;8.82;4.40;;;19.00;99.90;;;;;;5085598;28;20504;-80
2022/10/26 13:02:02;;;;;;;11.57;4.63;;;18.90;99.90;;;;;;5084969;28;20885;-80
2022/10/26 13:04:31;;;;;;;11.32;5.00;;;;;;;;;;5083578;28;21271;-80
2022/10/26 13:07:06;;;;;;;9.80;5.27;;;19.00;99.90;;;;;;5086394;28;20810;-80
2022/10/26 13:09:32;;;;;;;10.45;5.30;;;18.80;99.90;;;;;;5091198;28;20421;-79
2022/10/26 13:12:01;;;;;;;10.38;6.00;;;18.80;99.90;;;;;;5087254;28;20413;-79
2022/10/26 13:14:40;;;;;;;9.90;6.22;;;18.30;99.90;;;;;;5091715;28;20422;-78
2022/10/26 13:17:20;;;;;;;10.77;6.30;;;18.50;99.90;;;;;;5088213;28;20422;-77
2022/10/26 13:19:48;;;;;;;15.63;6.50;;;18.60;99.90;;;;;;5069965;28;20427;-77
2022/10/26 13:22:18;;;;;;;12.45;5.63;;;18.30;99.90;;;;;;5078105;28;20937;-78
2022/10/26 13:24:53;;;;;;;11.27;6.10;;;18.40;99.90;;;;;;5089736;28;20426;-77
2022/10/26 13:27:18;;;;;;;12.90;5.80;;;18.40;99.90;;;;;;5088524;28;20453;-77
2022/10/26 13:30:02;;;;;;;10.63;5.97;;;18.50;99.90;;;;;;5088567;28;20960;-78
2022/10/26 13:32:41;;;;;;;12.93;6.22;;;18.40;99.90;;;;;;5087180;28;20422;-77
2022/10/26 13:35:12;;;;;;;10.65;5.70;;;;;;;;;;5088334;28;20418;-77
2022/10/26 13:37:42;;;;;;;10.80;5.53;;;18.30;99.90;;;;;;5072474;28;20430;-78
2022/10/26 13:40:15;;;;;;;8.18;5.47;;;18.40;99.90;;;;;;5067579;28;20427;-77
2022/10/26 13:42:46;;;;;;;9.70;5.57;;;18.50;99.90;;;;;;5084136;28;20549;-77
2022/10/26 13:45:17;;;;;;;11.82;5.28;;;18.40;99.90;;;;;;5070426;28;20494;-77
2022/10/26 13:47:54;;;;;;;9.20;5.15;;;18.30;99.90;;;;;;5076810;28;20418;-78
2022/10/26 13:50:27;;;;;;;13.75;5.30;;;18.20;99.90;;;;;;5085183;28;20463;-79
2022/10/26 13:53:06;;;;;;;10.27;4.90;;;18.60;99.90;;;;;;5088388;28;20421;-79
2022/10/26 13:55:37;;;;;;;11.17;5.40;;;18.60;99.90;;;;;;5090122;28;20417;-79
2022/10/26 13:58:32;;;;;;;9.25;4.80;;;18.40;99.90;;;;;;5100646;28;20421;-77
2022/10/26 14:01:00;;;;;;;11.63;5.07;;;18.50;99.90;;;;;;5085627;28;20940;-78